SCEL 240500Z VRB02KT CAVOK 11/06 Q1016 NOSIG